sensor_id;sensor_type;location;lat;lon;timestamp;P1;P2;P0
73749;PMS7003;62058;48.406;-4.514;2022-07-05T15:19:58;58.50;45.75;30.00
73749;PMS7003;62058;48.406;-4.514;2022-07-05T15:22:24;53.75;44.50;29.75
73749;PMS7003;62058;48.406;-4.514;2022-07-05T15:29:08;4.25;3.25;2.50
73749;PMS7003;62058;48.406;-4.514;2022-07-05T15:31:35;1.00;1.00;1.00
73749;PMS7003;62058;48.406;-4.514;2022-07-05T15:34:02;1.75;1.25;1.00
73749;PMS7003;62058;48.406;-4.514;2022-07-05T15:36:29;1.00;1.00;1.00
73749;PMS7003;62058;48.406;-4.514;2022-07-05T15:38:57;2.75;1.25;1.00
73749;PMS7003;62058;48.406;-4.514;2022-07-05T15:41:26;0.50;0.50;0.50
73749;PMS7003;62058;48.406;-4.514;2022-07-05T15:43:52;1.25;0.75;0.75
73749;PMS7003;62058;48.406;-4.514;2022-07-05T15:46:17;0.25;0.25;0.00
73749;PMS7003;62058;48.406;-4.514;2022-07-05T15:48:42;1.00;1.00;0.50
73749;PMS7003;62058;48.406;-4.514;2022-07-05T15:51:08;1.00;1.00;1.00
73749;PMS7003;62058;48.406;-4.514;2022-07-05T15:53:36;1.00;0.25;0.00
73749;PMS7003;62058;48.406;-4.514;2022-07-05T15:56:01;1.50;1.00;1.00
73749;PMS7003;62058;48.406;-4.514;2022-07-05T15:58:27;1.00;1.00;1.00
73749;PMS7003;62058;48.406;-4.514;2022-07-05T16:00:57;1.00;1.00;1.00
73749;PMS7003;62058;48.406;-4.514;2022-07-05T16:03:24;1.75;1.00;0.25
73749;PMS7003;62058;48.406;-4.514;2022-07-05T16:05:51;1.00;1.00;1.00
73749;PMS7003;62058;48.406;-4.514;2022-07-05T16:08:17;1.50;0.75;0.75
73749;PMS7003;62058;48.406;-4.514;2022-07-05T16:10:43;0.75;0.25;0.25
73749;PMS7003;62058;48.406;-4.514;2022-07-05T16:13:09;1.00;0.75;0.50
73749;PMS7003;62058;48.406;-4.514;2022-07-05T16:15:37;1.00;1.00;1.00
73749;PMS7003;62058;48.406;-4.514;2022-07-05T16:18:21;1.00;1.00;0.75
73749;PMS7003;62058;48.406;-4.514;2022-07-05T16:20:47;1.00;1.00;1.00
73749;PMS7003;62058;48.406;-4.514;2022-07-05T16:23:12;1.00;1.00;1.00
73749;PMS7003;62058;48.406;-4.514;2022-07-05T16:25:37;1.25;1.00;1.00
73749;PMS7003;62058;48.406;-4.514;2022-07-05T16:28:03;5.75;4.75;3.75
73749;PMS7003;62058;48.406;-4.514;2022-07-05T16:30:29;3.50;1.00;1.00
73749;PMS7003;62058;48.406;-4.514;2022-07-05T16:32:55;0.50;0.25;0.25
73749;PMS7003;62058;48.406;-4.514;2022-07-05T16:35:20;0.75;0.75;0.00
73749;PMS7003;62058;48.406;-4.514;2022-07-05T16:37:46;1.25;1.25;1.00
73749;PMS7003;62058;48.406;-4.514;2022-07-05T16:40:11;1.00;1.00;1.00
73749;PMS7003;62058;48.406;-4.514;2022-07-05T16:42:37;2.50;1.00;1.00
73749;PMS7003;62058;48.406;-4.514;2022-07-05T16:45:03;0.00;0.00;0.00
73749;PMS7003;62058;48.406;-4.514;2022-07-05T16:47:32;1.00;0.00;0.00
73749;PMS7003;62058;48.406;-4.514;2022-07-05T16:49:58;1.25;1.25;1.25
73749;PMS7003;62058;48.406;-4.514;2022-07-05T16:52:23;3.50;1.00;1.00
73749;PMS7003;62058;48.406;-4.514;2022-07-05T16:54:48;2.50;2.00;1.25
73749;PMS7003;62058;48.406;-4.514;2022-07-05T16:57:14;2.00;2.00;2.00
73749;PMS7003;62058;48.406;-4.514;2022-07-05T16:59:39;2.50;1.00;1.00
73749;PMS7003;62058;48.406;-4.514;2022-07-05T17:02:05;1.50;0.75;0.75
73749;PMS7003;62058;48.406;-4.514;2022-07-05T17:04:31;3.00;2.00;1.75
73749;PMS7003;62058;48.406;-4.514;2022-07-05T17:06:57;2.00;2.00;1.50
73749;PMS7003;62058;48.406;-4.514;2022-07-05T17:09:22;1.00;1.00;1.00
73749;PMS7003;62058;48.406;-4.514;2022-07-05T17:11:47;0.25;0.25;0.00
73749;PMS7003;62058;48.406;-4.514;2022-07-05T17:14:13;1.00;1.00;1.00
73749;PMS7003;62058;48.406;-4.514;2022-07-05T17:16:38;1.50;0.25;0.25
73749;PMS7003;62058;48.406;-4.514;2022-07-05T17:19:03;1.00;0.00;0.00
73749;PMS7003;62058;48.406;-4.514;2022-07-05T17:21:29;1.00;1.00;1.00
73749;PMS7003;62058;48.406;-4.514;2022-07-05T17:23:54;0.00;0.00;0.00
73749;PMS7003;62058;48.406;-4.514;2022-07-05T17:26:21;1.00;1.00;1.00
73749;PMS7003;62058;48.406;-4.514;2022-07-05T17:28:49;0.00;0.00;0.00
73749;PMS7003;62058;48.406;-4.514;2022-07-05T17:31:16;0.50;0.25;0.25
73749;PMS7003;62058;48.406;-4.514;2022-07-05T17:33:42;1.00;0.00;0.00
73749;PMS7003;62058;48.406;-4.514;2022-07-05T17:36:09;1.25;1.25;0.75
73749;PMS7003;62058;48.406;-4.514;2022-07-05T17:38:36;1.00;1.00;1.00
73749;PMS7003;62058;48.406;-4.514;2022-07-05T17:41:02;1.00;1.00;1.00
73749;PMS7003;62058;48.406;-4.514;2022-07-05T17:43:29;1.25;1.25;1.00
73749;PMS7003;62058;48.406;-4.514;2022-07-05T17:45:54;0.25;0.25;0.25
73749;PMS7003;62058;48.406;-4.514;2022-07-05T17:48:20;0.75;0.75;0.00
73749;PMS7003;62058;48.406;-4.514;2022-07-05T17:50:46;1.25;0.00;0.00
73749;PMS7003;62058;48.406;-4.514;2022-07-05T17:53:12;0.75;0.75;0.75
73749;PMS7003;62058;48.406;-4.514;2022-07-05T17:55:37;1.00;1.00;0.00
73749;PMS7003;62058;48.406;-4.514;2022-07-05T17:58:03;3.00;1.25;1.00
73749;PMS7003;62058;48.406;-4.514;2022-07-05T18:00:30;1.00;1.00;1.00
73749;PMS7003;62058;48.406;-4.514;2022-07-05T18:02:59;1.00;1.00;0.00
73749;PMS7003;62058;48.406;-4.514;2022-07-05T18:05:25;2.00;1.00;0.50
73749;PMS7003;62058;48.406;-4.514;2022-07-05T18:07:53;1.50;0.00;0.00
73749;PMS7003;62058;48.406;-4.514;2022-07-05T18:10:24;1.00;1.00;1.00
73749;PMS7003;62058;48.406;-4.514;2022-07-05T18:12:52;2.00;0.50;0.25
73749;PMS7003;62058;48.406;-4.514;2022-07-05T18:15:18;0.00;0.00;0.00
73749;PMS7003;62058;48.406;-4.514;2022-07-05T18:17:43;1.00;1.00;1.00
73749;PMS7003;62058;48.406;-4.514;2022-07-05T18:20:09;3.00;1.00;1.00
73749;PMS7003;62058;48.406;-4.514;2022-07-05T18:22:44;0.75;0.75;0.75
73749;PMS7003;62058;48.406;-4.514;2022-07-05T18:25:09;0.25;0.25;0.25
73749;PMS7003;62058;48.406;-4.514;2022-07-05T18:27:35;3.00;1.00;1.00
73749;PMS7003;62058;48.406;-4.514;2022-07-05T18:30:00;3.75;1.00;1.00
73749;PMS7003;62058;48.406;-4.514;2022-07-05T18:32:29;1.00;1.00;0.50
73749;PMS7003;62058;48.406;-4.514;2022-07-05T18:34:56;0.00;0.00;0.00
73749;PMS7003;62058;48.406;-4.514;2022-07-05T18:37:21;1.00;1.00;1.00
73749;PMS7003;62058;48.406;-4.514;2022-07-05T18:39:46;2.00;0.00;0.00
73749;PMS7003;62058;48.406;-4.514;2022-07-05T18:42:12;3.00;1.00;1.00
73749;PMS7003;62058;48.406;-4.514;2022-07-05T18:44:38;2.00;0.00;0.00
73749;PMS7003;62058;48.406;-4.514;2022-07-05T18:47:04;1.25;1.00;1.00
73749;PMS7003;62058;48.406;-4.514;2022-07-05T18:49:29;1.00;1.00;1.00
73749;PMS7003;62058;48.406;-4.514;2022-07-05T18:51:55;0.75;0.75;0.50
73749;PMS7003;62058;48.406;-4.514;2022-07-05T18:54:20;3.00;1.00;1.00
73749;PMS7003;62058;48.406;-4.514;2022-07-05T18:56:45;1.00;1.00;1.00
73749;PMS7003;62058;48.406;-4.514;2022-07-05T18:59:11;2.00;1.00;1.00
73749;PMS7003;62058;48.406;-4.514;2022-07-05T19:01:36;2.00;1.00;1.00
73749;PMS7003;62058;48.406;-4.514;2022-07-05T19:04:02;3.00;1.75;1.50
73749;PMS7003;62058;48.406;-4.514;2022-07-05T19:06:28;3.25;1.50;1.00
73749;PMS7003;62058;48.406;-4.514;2022-07-05T19:09:13;0.00;0.00;0.00
73749;PMS7003;62058;48.406;-4.514;2022-07-05T19:12:00;0.75;0.75;0.25
73749;PMS7003;62058;48.406;-4.514;2022-07-05T19:14:46;1.50;1.00;0.75
73749;PMS7003;62058;48.406;-4.514;2022-07-05T19:17:12;0.50;0.00;0.00
73749;PMS7003;62058;48.406;-4.514;2022-07-05T19:19:37;1.00;1.00;1.00
73749;PMS7003;62058;48.406;-4.514;2022-07-05T19:22:03;1.50;1.50;1.00
73749;PMS7003;62058;48.406;-4.514;2022-07-05T19:24:28;1.00;1.00;1.00
73749;PMS7003;62058;48.406;-4.514;2022-07-05T19:26:54;1.00;1.00;1.00
73749;PMS7003;62058;48.406;-4.514;2022-07-05T19:29:19;1.25;1.25;1.00
73749;PMS7003;62058;48.406;-4.514;2022-07-05T19:31:44;1.00;1.00;0.75
73749;PMS7003;62058;48.406;-4.514;2022-07-05T19:34:10;2.00;2.00;1.00
73749;PMS7003;62058;48.406;-4.514;2022-07-05T19:36:35;1.00;1.00;1.00
73749;PMS7003;62058;48.406;-4.514;2022-07-05T19:39:02;2.00;0.75;0.75
73749;PMS7003;62058;48.406;-4.514;2022-07-05T19:41:27;0.00;0.00;0.00
73749;PMS7003;62058;48.406;-4.514;2022-07-05T19:43:53;1.50;1.50;1.00
73749;PMS7003;62058;48.406;-4.514;2022-07-05T19:46:18;1.00;1.00;1.00
73749;PMS7003;62058;48.406;-4.514;2022-07-05T19:48:43;2.00;2.00;2.00
73749;PMS7003;62058;48.406;-4.514;2022-07-05T19:51:09;0.00;0.00;0.00
73749;PMS7003;62058;48.406;-4.514;2022-07-05T19:53:35;1.00;1.00;1.00
73749;PMS7003;62058;48.406;-4.514;2022-07-05T19:56:00;1.50;1.00;1.00
73749;PMS7003;62058;48.406;-4.514;2022-07-05T19:58:28;3.00;1.00;1.00
73749;PMS7003;62058;48.406;-4.514;2022-07-05T20:00:54;2.50;1.00;1.00
73749;PMS7003;62058;48.406;-4.514;2022-07-05T20:03:19;1.00;1.00;1.00
73749;PMS7003;62058;48.406;-4.514;2022-07-05T20:05:45;4.00;1.50;1.00
73749;PMS7003;62058;48.406;-4.514;2022-07-05T20:08:10;3.00;1.50;1.25
73749;PMS7003;62058;48.406;-4.514;2022-07-05T20:10:36;1.50;0.00;0.00
73749;PMS7003;62058;48.406;-4.514;2022-07-05T20:13:01;3.00;1.00;1.00
73749;PMS7003;62058;48.406;-4.514;2022-07-05T20:15:26;0.75;0.25;0.25
73749;PMS7003;62058;48.406;-4.514;2022-07-05T20:17:52;1.00;1.00;1.00
73749;PMS7003;62058;48.406;-4.514;2022-07-05T20:20:17;2.00;1.25;1.00
73749;PMS7003;62058;48.406;-4.514;2022-07-05T20:22:43;2.25;1.00;1.00
73749;PMS7003;62058;48.406;-4.514;2022-07-05T20:25:12;2.00;0.25;0.25
73749;PMS7003;62058;48.406;-4.514;2022-07-05T20:27:38;1.00;1.00;0.50
73749;PMS7003;62058;48.406;-4.514;2022-07-05T20:30:03;2.00;1.00;1.00
73749;PMS7003;62058;48.406;-4.514;2022-07-05T20:32:29;1.50;1.00;1.00
73749;PMS7003;62058;48.406;-4.514;2022-07-05T20:34:55;1.00;1.00;1.00
73749;PMS7003;62058;48.406;-4.514;2022-07-05T20:37:20;3.75;1.75;1.00
73749;PMS7003;62058;48.406;-4.514;2022-07-05T20:39:46;2.50;2.50;1.00
73749;PMS7003;62058;48.406;-4.514;2022-07-05T20:42:14;1.00;1.00;1.00
73749;PMS7003;62058;48.406;-4.514;2022-07-05T20:44:42;1.00;1.00;0.75
73749;PMS7003;62058;48.406;-4.514;2022-07-05T20:47:07;1.00;1.00;1.00
73749;PMS7003;62058;48.406;-4.514;2022-07-05T20:49:33;1.00;1.00;1.00
73749;PMS7003;62058;48.406;-4.514;2022-07-05T20:51:58;7.00;2.25;2.00
73749;PMS7003;62058;48.406;-4.514;2022-07-05T20:54:24;2.75;2.00;2.00
73749;PMS7003;62058;48.406;-4.514;2022-07-05T20:56:49;1.00;1.00;1.00
73749;PMS7003;62058;48.406;-4.514;2022-07-05T20:59:15;1.00;1.00;1.00
73749;PMS7003;62058;48.406;-4.514;2022-07-05T21:01:40;2.00;2.00;2.00
73749;PMS7003;62058;48.406;-4.514;2022-07-05T21:04:06;1.75;1.75;1.00
73749;PMS7003;62058;48.406;-4.514;2022-07-05T21:06:31;1.00;1.00;1.00
73749;PMS7003;62058;48.406;-4.514;2022-07-05T21:08:56;2.25;1.25;1.25
73749;PMS7003;62058;48.406;-4.514;2022-07-05T21:11:22;2.00;2.00;1.25
73749;PMS7003;62058;48.406;-4.514;2022-07-05T21:13:47;2.50;2.50;2.00
73749;PMS7003;62058;48.406;-4.514;2022-07-05T21:16:13;3.25;2.50;2.00
73749;PMS7003;62058;48.406;-4.514;2022-07-05T21:18:38;1.75;1.75;1.00
73749;PMS7003;62058;48.406;-4.514;2022-07-05T21:21:04;1.50;1.50;1.00
73749;PMS7003;62058;48.406;-4.514;2022-07-05T21:23:30;3.25;2.00;2.00
73749;PMS7003;62058;48.406;-4.514;2022-07-05T21:25:55;2.00;2.00;2.00
73749;PMS7003;62058;48.406;-4.514;2022-07-05T21:28:21;5.00;3.00;2.00
73749;PMS7003;62058;48.406;-4.514;2022-07-05T21:30:46;4.25;2.75;2.25
73749;PMS7003;62058;48.406;-4.514;2022-07-05T21:33:12;2.00;2.00;1.50
73749;PMS7003;62058;48.406;-4.514;2022-07-05T21:35:37;2.25;2.00;1.75
73749;PMS7003;62058;48.406;-4.514;2022-07-05T21:38:03;3.50;2.00;2.00
73749;PMS7003;62058;48.406;-4.514;2022-07-05T21:40:28;2.00;2.00;1.25
73749;PMS7003;62058;48.406;-4.514;2022-07-05T21:42:54;4.25;2.75;2.75
73749;PMS7003;62058;48.406;-4.514;2022-07-05T21:45:23;3.25;2.50;2.00
73749;PMS7003;62058;48.406;-4.514;2022-07-05T21:47:48;4.50;4.50;4.50
73749;PMS7003;62058;48.406;-4.514;2022-07-05T21:50:14;3.00;3.00;3.00
73749;PMS7003;62058;48.406;-4.514;2022-07-05T21:52:39;6.25;2.25;1.75
73749;PMS7003;62058;48.406;-4.514;2022-07-05T21:55:05;3.50;3.00;2.25
73749;PMS7003;62058;48.406;-4.514;2022-07-05T21:57:31;5.50;4.00;2.75
73749;PMS7003;62058;48.406;-4.514;2022-07-05T21:59:57;5.00;5.00;4.75
73749;PMS7003;62058;48.406;-4.514;2022-07-05T22:02:41;3.50;2.00;2.00
73749;PMS7003;62058;48.406;-4.514;2022-07-05T22:05:24;4.75;3.00;2.75
73749;PMS7003;62058;48.406;-4.514;2022-07-05T22:07:50;3.00;2.50;2.00
73749;PMS7003;62058;48.406;-4.514;2022-07-05T22:10:15;2.00;2.00;1.75
73749;PMS7003;62058;48.406;-4.514;2022-07-05T22:12:41;6.50;4.50;3.00
73749;PMS7003;62058;48.406;-4.514;2022-07-05T22:15:06;4.75;2.25;2.00
73749;PMS7003;62058;48.406;-4.514;2022-07-05T22:17:32;5.00;4.25;2.50
73749;PMS7003;62058;48.406;-4.514;2022-07-05T22:19:57;8.25;4.00;3.00
73749;PMS7003;62058;48.406;-4.514;2022-07-05T22:22:23;8.25;6.50;3.75
73749;PMS7003;62058;48.406;-4.514;2022-07-05T22:24:48;6.25;3.00;2.75
73749;PMS7003;62058;48.406;-4.514;2022-07-05T22:27:13;6.50;5.75;4.25
73749;PMS7003;62058;48.406;-4.514;2022-07-05T22:29:39;8.75;5.50;3.50
73749;PMS7003;62058;48.406;-4.514;2022-07-05T22:32:04;8.75;6.25;5.00
73749;PMS7003;62058;48.406;-4.514;2022-07-05T22:34:30;7.75;7.25;4.75
73749;PMS7003;62058;48.406;-4.514;2022-07-05T22:36:58;8.50;6.25;4.50
73749;PMS7003;62058;48.406;-4.514;2022-07-05T22:39:24;7.50;4.75;3.50
73749;PMS7003;62058;48.406;-4.514;2022-07-05T22:41:49;7.75;5.00;4.25
73749;PMS7003;62058;48.406;-4.514;2022-07-05T22:44:14;7.50;6.25;5.00
73749;PMS7003;62058;48.406;-4.514;2022-07-05T22:46:40;8.50;6.25;4.00
73749;PMS7003;62058;48.406;-4.514;2022-07-05T22:49:05;6.00;5.00;4.00
73749;PMS7003;62058;48.406;-4.514;2022-07-05T22:51:30;7.25;6.00;4.25
73749;PMS7003;62058;48.406;-4.514;2022-07-05T22:53:56;8.25;5.25;4.25
73749;PMS7003;62058;48.406;-4.514;2022-07-05T22:56:21;8.00;3.50;2.50
73749;PMS7003;62058;48.406;-4.514;2022-07-05T22:58:47;9.25;5.25;3.00
73749;PMS7003;62058;48.406;-4.514;2022-07-05T23:01:12;5.25;5.25;4.00
73749;PMS7003;62058;48.406;-4.514;2022-07-05T23:03:38;7.50;5.00;3.00
73749;PMS7003;62058;48.406;-4.514;2022-07-05T23:06:03;5.00;4.25;3.00
73749;PMS7003;62058;48.406;-4.514;2022-07-05T23:08:29;6.50;5.50;4.50
73749;PMS7003;62058;48.406;-4.514;2022-07-05T23:10:55;4.00;4.00;3.00
73749;PMS7003;62058;48.406;-4.514;2022-07-05T23:13:20;5.00;5.00;4.25
73749;PMS7003;62058;48.406;-4.514;2022-07-05T23:15:46;6.00;5.00;4.00
73749;PMS7003;62058;48.406;-4.514;2022-07-05T23:18:11;7.50;5.25;4.25
73749;PMS7003;62058;48.406;-4.514;2022-07-05T23:20:37;5.00;5.00;4.25
73749;PMS7003;62058;48.406;-4.514;2022-07-05T23:23:02;7.50;5.25;4.50
73749;PMS7003;62058;48.406;-4.514;2022-07-05T23:25:30;5.75;5.00;4.00
73749;PMS7003;62058;48.406;-4.514;2022-07-05T23:27:55;5.00;5.00;4.00
73749;PMS7003;62058;48.406;-4.514;2022-07-05T23:30:21;8.25;6.75;4.00
73749;PMS7003;62058;48.406;-4.514;2022-07-05T23:32:46;9.50;6.00;5.00
73749;PMS7003;62058;48.406;-4.514;2022-07-05T23:35:12;8.00;5.00;3.75
73749;PMS7003;62058;48.406;-4.514;2022-07-05T23:37:37;6.25;6.00;5.00
73749;PMS7003;62058;48.406;-4.514;2022-07-05T23:40:03;5.00;5.00;4.75
73749;PMS7003;62058;48.406;-4.514;2022-07-05T23:42:28;7.00;5.00;4.00
73749;PMS7003;62058;48.406;-4.514;2022-07-05T23:44:54;7.00;6.00;4.75
73749;PMS7003;62058;48.406;-4.514;2022-07-05T23:47:19;5.50;5.50;4.75
73749;PMS7003;62058;48.406;-4.514;2022-07-05T23:49:45;10.25;9.25;7.00
73749;PMS7003;62058;48.406;-4.514;2022-07-05T23:52:11;6.00;6.00;5.00
73749;PMS7003;62058;48.406;-4.514;2022-07-05T23:54:36;8.25;7.00;5.50
73749;PMS7003;62058;48.406;-4.514;2022-07-05T23:57:02;9.50;6.50;5.00
73749;PMS7003;62058;48.406;-4.514;2022-07-05T23:59:27;9.00;5.00;4.25
